Time;durP1;ratioP1;P1;durP2;ratioP2;P2;SDS_P1;SDS_P2;PMS_P1;PMS_P2;Temp;Humidity;BMP_temperature;BMP_pressure;BME280_temperature;BME280_humidity;BME280_pressure;Samples;Min_cycle;Max_cycle;Signal;HPM_P1;HPM_P2
2021/12/22 00:00:46;;;;;;;;;;;;;;;;;;5113951;28;20036;-87
2021/12/22 00:03:13;;;;;;;;;;;;;;;;;;5114602;28;20429;-86
2021/12/22 00:05:45;;;;;;;;;;;;;;;;;;5114045;28;20024;-87
2021/12/22 00:08:12;;;;;;;;;;;;;;;;;;5114532;28;20006;-86
2021/12/22 00:10:39;;;;;;;;;;;;;;;;;;5114146;28;19924;-86
2021/12/22 00:13:06;;;;;;;;;;;;;;;;;;5114125;28;20018;-86
2021/12/22 00:15:33;;;;;;;;;;;;;;;;;;5113994;28;20038;-86
2021/12/22 00:18:00;;;;;;;;;;;;;;;;;;5114401;28;20006;-87
2021/12/22 00:20:27;;;;;;;;;;;;;;;;;;5114057;28;20451;-86
2021/12/22 00:22:54;;;;;;;;;;;;;;;;;;5113720;28;20002;-86
2021/12/22 00:25:25;;;;;;;;;;;;;;;;;;5113815;28;20030;-87
2021/12/22 00:27:52;;;;;;;;;;;;;;;;;;5113877;28;19938;-87
2021/12/22 00:30:19;;;;;;;;;;;;;;;;;;5113626;28;19959;-87
2021/12/22 00:32:51;;;;;;;;;;;;;;;;;;5114106;28;19974;-86
2021/12/22 00:35:19;;;;;;;;;;;;;;;;;;5113950;28;19938;-86
2021/12/22 00:37:46;;;;;;;;;;;;;;;;;;5113563;28;19942;-86
2021/12/22 00:40:13;;;;;;;;;;;;;;;;;;5113740;28;19999;-86
2021/12/22 00:42:40;;;;;;;;;;;;;;;;;;5113405;28;20393;-86
2021/12/22 00:45:07;;;;;;;;;;;;;;;;;;5113851;28;20049;-87
2021/12/22 00:47:34;;;;;;;;;;;;;;;;;;5113840;28;19984;-86
2021/12/22 00:50:01;;;;;;;;;;;;;;;;;;5113922;28;19984;-86
2021/12/22 00:52:28;;;;;;;;;;;;;;;;;;5113565;28;20026;-86
2021/12/22 00:54:55;;;;;;;;;;;;;;;;;;5113393;28;19998;-86
2021/12/22 00:57:22;;;;;;;;;;;;;;;;;;5113358;28;19991;-86
2021/12/22 00:59:49;;;;;;;;;;;;;;;;;;5113466;28;19924;-86
2021/12/22 01:02:16;;;;;;;;;;;;;;;;;;5114075;28;20003;-86
2021/12/22 01:04:43;;;;;;;;;;;;;;;;;;5117880;28;20039;-86
2021/12/22 01:07:10;;;;;;;;;;;;;;;;;;5117525;28;20026;-87
2021/12/22 01:09:37;;;;;;;;;;;;;;;;;;5116752;28;20453;-86
2021/12/22 01:12:04;;;;;;;;;;;;;;;;;;5117451;28;20018;-86
2021/12/22 01:14:32;;;;;;;;;;;;;;;;;;5117554;28;20017;-86
2021/12/22 01:17:01;;;;;;;;;;;;;;;;;;5117775;28;20352;-85
2021/12/22 01:19:35;;;;;;;;;;;;;;;;;;5117445;28;19978;-85
2021/12/22 01:22:09;;;;;;;;;;;;;;;;;;5117575;28;19964;-86
2021/12/22 01:24:36;;;;;;;;;;;;;;;;;;5117038;28;19924;-86
2021/12/22 01:27:08;;;;;;;;;;;;;;;;;;5117502;28;20439;-86
2021/12/22 01:29:35;;;;;;;;;;;;;;;;;;5117090;28;20268;-86
2021/12/22 01:32:02;;;;;;;;;;;;;;;;;;5118418;28;19967;-86
2021/12/22 01:34:29;;;;;;;;;;;;;;;;;;5118590;28;20135;-86
2021/12/22 01:36:56;;;;;;;;;;;;;;;;;;5117662;28;19928;-86
2021/12/22 01:39:23;;;;;;;;;;;;;;;;;;5116842;28;20011;-86
2021/12/22 01:41:50;;;;;;;;;;;;;;;;;;5117648;28;20372;-86
2021/12/22 01:44:23;;;;;;;;;;;;;;;;;;5116871;28;19943;-85
2021/12/22 01:49:35;;;;;;;;;;;;;;;;;;5117003;28;19948;-86
2021/12/22 01:52:02;;;;;;;;;;;;;;;;;;5117164;28;20033;-86
2021/12/22 01:54:29;;;;;;;;;;;;;;;;;;5116913;28;19963;-86
2021/12/22 01:56:59;;;;;;;;;;;;;;;;;;5116542;28;20018;-86
2021/12/22 01:59:26;;;;;;;;;;;;;;;;;;5116313;28;20370;-86
2021/12/22 02:01:53;;;;;;;;;;;;;;;;;;5116405;28;20034;-86
2021/12/22 02:04:20;;;;;;;;;;;;;;;;;;5116855;28;19965;-86
2021/12/22 02:06:47;;;;;;;;;;;;;;;;;;5116535;28;20426;-86
2021/12/22 02:09:23;;;;;;;;;;;;;;;;;;5115995;28;20036;-86
2021/12/22 02:11:50;;;;;;;;;;;;;;;;;;5095995;28;20014;-86
2021/12/22 02:14:17;;;;;;;;;;;;;;;;;;5106547;28;20010;-85
2021/12/22 02:16:44;;;;;;;;;;;;;;;;;;5116063;28;19974;-85
2021/12/22 02:19:11;;;;;;;;;;;;;;;;;;5116618;28;19986;-86
2021/12/22 02:21:43;;;;;;;;;;;;;;;;;;5116118;28;19950;-86
2021/12/22 02:24:11;;;;;;;;;;;;;;;;;;5116331;28;19924;-86
2021/12/22 02:26:43;;;;;;;;;;;;;;;;;;5116127;28;20271;-86
2021/12/22 02:29:19;;;;;;;;;;;;;;;;;;5115967;28;20340;-86
2021/12/22 02:31:49;;;;;;;;;;;;;;;;;;5116351;28;20011;-85
2021/12/22 02:34:17;;;;;;;;;;;;;;;;;;5115938;28;19965;-85
2021/12/22 02:36:44;;;;;;;;;;;;;;;;;;5115953;28;19931;-86
2021/12/22 02:39:12;;;;;;;;;;;;;;;;;;5115651;28;19928;-86
2021/12/22 02:41:39;;;;;;;;;;;;;;;;;;5115626;28;19993;-86
2021/12/22 02:44:08;;;;;;;;;;;;;;;;;;5115979;28;20264;-85
2021/12/22 02:46:35;;;;;;;;;;;;;;;;;;5116165;28;19968;-87
2021/12/22 02:49:02;;;;;;;;;;;;;;;;;;5118595;28;20007;-87
2021/12/22 02:51:29;;;;;;;;;;;;;;;;;;5115236;28;20014;-86
2021/12/22 02:54:05;;;;;;;;;;;;;;;;;;5115623;28;20355;-86
2021/12/22 02:56:37;;;;;;;;;;;;;;;;;;5115669;28;19994;-86
2021/12/22 02:59:15;;;;;;;;;;;;;;;;;;5115295;28;19930;-86
2021/12/22 03:04:25;;;;;;;;;;;;;;;;;;5101528;28;19933;-85
2021/12/22 03:06:56;;;;;;;;;;;;;;;;;;5115480;28;20389;-86
2021/12/22 03:09:23;;;;;;;;;;;;;;;;;;5115133;28;19924;-85
2021/12/22 03:11:50;;;;;;;;;;;;;;;;;;5115239;28;20407;-85
2021/12/22 03:14:17;;;;;;;;;;;;;;;;;;5115475;28;20004;-85
2021/12/22 03:16:44;;;;;;;;;;;;;;;;;;5116067;28;20022;-86
2021/12/22 03:19:11;;;;;;;;;;;;;;;;;;5115149;28;20037;-86
2021/12/22 03:21:40;;;;;;;;;;;;;;;;;;5115390;28;20018;-85
2021/12/22 03:24:07;;;;;;;;;;;;;;;;;;5114089;28;19931;-85
2021/12/22 03:26:40;;;;;;;;;;;;;;;;;;5114799;28;19983;-85
2021/12/22 03:29:07;;;;;;;;;;;;;;;;;;5114964;28;20029;-86
2021/12/22 03:31:34;;;;;;;;;;;;;;;;;;5114567;28;20040;-85
2021/12/22 03:34:02;;;;;;;;;;;;;;;;;;5114526;28;20021;-86
2021/12/22 03:36:29;;;;;;;;;;;;;;;;;;5114898;28;19982;-86
2021/12/22 03:38:56;;;;;;;;;;;;;;;;;;5114659;28;19938;-86
2021/12/22 03:41:23;;;;;;;;;;;;;;;;;;5114600;28;20373;-85
2021/12/22 03:43:50;;;;;;;;;;;;;;;;;;5114616;28;20024;-85
2021/12/22 03:46:17;;;;;;;;;;;;;;;;;;5114568;28;20030;-86
2021/12/22 03:48:44;;;;;;;;;;;;;;;;;;5114438;28;20029;-85
2021/12/22 03:51:11;;;;;;;;;;;;;;;;;;5114710;28;19971;-85
2021/12/22 03:53:38;;;;;;;;;;;;;;;;;;5114488;28;19959;-85
2021/12/22 03:56:05;;;;;;;;;;;;;;;;;;5114192;28;20029;-85
2021/12/22 03:58:32;;;;;;;;;;;;;;;;;;5114023;28;19977;-86
2021/12/22 04:00:59;;;;;;;;;;;;;;;;;;5114155;28;20438;-85
2021/12/22 04:03:29;;;;;;;;;;;;;;;;;;5114486;28;19975;-86
2021/12/22 04:05:56;;;;;;;;;;;;;;;;;;5114262;28;20025;-85
2021/12/22 04:08:23;;;;;;;;;;;;;;;;;;5114436;28;20002;-85
2021/12/22 04:10:50;;;;;;;;;;;;;;;;;;5113874;28;20394;-86
2021/12/22 04:13:19;;;;;;;;;;;;;;;;;;5114111;28;19975;-85
2021/12/22 04:15:46;;;;;;;;;;;;;;;;;;5113991;28;20007;-84
2021/12/22 04:18:13;;;;;;;;;;;;;;;;;;5114035;28;20010;-85
2021/12/22 04:20:40;;;;;;;;;;;;;;;;;;5114482;28;20018;-85
2021/12/22 04:23:07;;;;;;;;;;;;;;;;;;5114309;28;20003;-85
2021/12/22 04:25:34;;;;;;;;;;;;;;;;;;5113616;28;20311;-85
2021/12/22 04:28:04;;;;;;;;;;;;;;;;;;5113584;28;19967;-84
2021/12/22 04:30:32;;;;;;;;;;;;;;;;;;5113550;28;20385;-85
2021/12/22 04:32:59;;;;;;;;;;;;;;;;;;5114240;28;19975;-85
2021/12/22 04:35:26;;;;;;;;;;;;;;;;;;5113655;28;20006;-84
2021/12/22 04:37:53;;;;;;;;;;;;;;;;;;5113305;28;20011;-84
2021/12/22 04:40:20;;;;;;;;;;;;;;;;;;5113723;28;20011;-85
2021/12/22 04:42:47;;;;;;;;;;;;;;;;;;5113925;28;20366;-84
2021/12/22 04:45:14;;;;;;;;;;;;;;;;;;5113850;28;20010;-84
2021/12/22 04:47:41;;;;;;;;;;;;;;;;;;5113992;28;19943;-84
2021/12/22 04:50:12;;;;;;;;;;;;;;;;;;5113384;28;19979;-84
2021/12/22 04:52:45;;;;;;;;;;;;;;;;;;5113664;28;20419;-84
2021/12/22 04:55:12;;;;;;;;;;;;;;;;;;5113551;28;19981;-84
2021/12/22 04:57:39;;;;;;;;;;;;;;;;;;5113965;28;20014;-84
2021/12/22 05:00:06;;;;;;;;;;;;;;;;;;5113232;28;20335;-84
2021/12/22 05:02:33;;;;;;;;;;;;;;;;;;5113320;28;19971;-84
2021/12/22 05:05:00;;;;;;;;;;;;;;;;;;5113342;28;20015;-84
2021/12/22 05:07:27;;;;;;;;;;;;;;;;;;5113258;28;20438;-85
2021/12/22 05:09:54;;;;;;;;;;;;;;;;;;5112817;28;20019;-84
2021/12/22 05:12:21;;;;;;;;;;;;;;;;;;5113530;28;20007;-84
2021/12/22 05:14:50;;;;;;;;;;;;;;;;;;5113328;28;20007;-84
2021/12/22 05:17:21;;;;;;;;;;;;;;;;;;5113470;28;19938;-85
2021/12/22 05:19:48;;;;;;;;;;;;;;;;;;5113141;28;19977;-84
2021/12/22 05:22:15;;;;;;;;;;;;;;;;;;5113574;28;19974;-84
2021/12/22 05:24:42;;;;;;;;;;;;;;;;;;5113777;28;20358;-84
2021/12/22 05:27:11;;;;;;;;;;;;;;;;;;5113148;28;20415;-84
2021/12/22 05:29:38;;;;;;;;;;;;;;;;;;5113192;28;19927;-84
2021/12/22 05:32:05;;;;;;;;;;;;;;;;;;5113322;28;20323;-84
2021/12/22 05:34:32;;;;;;;;;;;;;;;;;;5113242;28;19924;-84
2021/12/22 05:37:00;;;;;;;;;;;;;;;;;;5113463;28;20006;-84
2021/12/22 05:39:27;;;;;;;;;;;;;;;;;;5112837;28;19924;-84
2021/12/22 05:41:55;;;;;;;;;;;;;;;;;;5113233;28;20016;-84
2021/12/22 05:44:22;;;;;;;;;;;;;;;;;;5113379;28;20363;-85
2021/12/22 05:46:49;;;;;;;;;;;;;;;;;;5112745;28;20015;-84
2021/12/22 05:49:16;;;;;;;;;;;;;;;;;;5113387;28;20007;-84
2021/12/22 05:51:43;;;;;;;;;;;;;;;;;;5116531;28;20466;-84
2021/12/22 05:54:10;;;;;;;;;;;;;;;;;;5116806;28;20010;-84
2021/12/22 05:56:37;;;;;;;;;;;;;;;;;;5116825;28;20007;-83
2021/12/22 05:59:04;;;;;;;;;;;;;;;;;;5116615;28;20014;-84
2021/12/22 06:01:32;;;;;;;;;;;;;;;;;;5116724;28;20036;-84
2021/12/22 06:04:00;;;;;;;;;;;;;;;;;;5116443;28;19934;-84
2021/12/22 06:06:27;;;;;;;;;;;;;;;;;;5116338;28;20386;-83
2021/12/22 06:08:54;;;;;;;;;;;;;;;;;;5116812;28;20018;-84
2021/12/22 06:11:21;;;;;;;;;;;;;;;;;;5116384;28;19994;-84
2021/12/22 06:13:48;;;;;;;;;;;;;;;;;;5115997;28;20355;-83
2021/12/22 06:16:15;;;;;;;;;;;;;;;;;;5116068;28;20014;-84
2021/12/22 06:18:44;;;;;;;;;;;;;;;;;;5115719;28;19998;-84
2021/12/22 06:21:11;;;;;;;;;;;;;;;;;;5115724;28;19938;-84
2021/12/22 06:23:38;;;;;;;;;;;;;;;;;;5116578;28;19990;-83
2021/12/22 06:26:05;;;;;;;;;;;;;;;;;;5116305;28;19981;-84
2021/12/22 06:28:32;;;;;;;;;;;;;;;;;;5115260;28;20007;-84
2021/12/22 06:30:59;;;;;;;;;;;;;;;;;;5116033;28;20392;-85
2021/12/22 06:33:26;;;;;;;;;;;;;;;;;;5115876;28;20014;-83
2021/12/22 06:35:53;;;;;;;;;;;;;;;;;;5115927;28;19976;-83
2021/12/22 06:38:20;;;;;;;;;;;;;;;;;;5116112;28;20035;-83
2021/12/22 06:40:47;;;;;;;;;;;;;;;;;;5117738;28;20431;-82
2021/12/22 06:43:14;;;;;;;;;;;;;;;;;;5121627;28;19974;-84
2021/12/22 06:45:41;;;;;;;;;;;;;;;;;;5118487;28;19967;-83
2021/12/22 06:48:08;;;;;;;;;;;;;;;;;;5115490;28;20022;-83
2021/12/22 06:50:35;;;;;;;;;;;;;;;;;;5116081;28;20036;-84
2021/12/22 06:53:02;;;;;;;;;;;;;;;;;;5115379;28;20014;-83
2021/12/22 06:55:29;;;;;;;;;;;;;;;;;;5115627;28;20462;-83
2021/12/22 06:57:56;;;;;;;;;;;;;;;;;;5115103;28;20003;-84
2021/12/22 07:00:23;;;;;;;;;;;;;;;;;;5114824;28;20021;-84
2021/12/22 07:02:52;;;;;;;;;;;;;;;;;;5114828;28;20445;-83
2021/12/22 07:05:19;;;;;;;;;;;;;;;;;;5114863;28;20260;-83
2021/12/22 07:07:46;;;;;;;;;;;;;;;;;;5114610;28;20010;-83
2021/12/22 07:10:13;;;;;;;;;;;;;;;;;;5115126;28;19994;-83
2021/12/22 07:12:40;;;;;;;;;;;;;;;;;;5114188;28;20014;-83
2021/12/22 07:15:09;;;;;;;;;;;;;;;;;;5112384;28;19955;-84
2021/12/22 07:17:36;;;;;;;;;;;;;;;;;;5113697;28;19995;-84
2021/12/22 07:20:05;;;;;;;;;;;;;;;;;;5113825;28;20011;-84
2021/12/22 07:22:32;;;;;;;;;;;;;;;;;;5113691;28;20378;-84
2021/12/22 07:24:59;;;;;;;;;;;;;;;;;;5112299;28;20032;-83
2021/12/22 07:27:26;;;;;;;;;;;;;;;;;;5113567;28;19954;-83
2021/12/22 07:29:53;;;;;;;;;;;;;;;;;;5114931;28;20001;-84
2021/12/22 07:32:20;;;;;;;;;;;;;;;;;;5114642;28;20045;-84
2021/12/22 07:34:48;;;;;;;;;;;;;;;;;;5114507;28;20033;-83
2021/12/22 07:37:15;;;;;;;;;;;;;;;;;;5114481;28;20271;-84
2021/12/22 07:39:42;;;;;;;;;;;;;;;;;;5115048;28;19998;-84
2021/12/22 07:42:09;;;;;;;;;;;;;;;;;;5114183;28;20033;-83
2021/12/22 07:44:36;;;;;;;;;;;;;;;;;;5114870;28;20006;-84
2021/12/22 07:47:03;;;;;;;;;;;;;;;;;;5113937;28;20384;-84
2021/12/22 07:49:30;;;;;;;;;;;;;;;;;;5114518;28;20037;-84
2021/12/22 07:51:57;;;;;;;;;;;;;;;;;;5113786;28;20027;-84
2021/12/22 07:54:24;;;;;;;;;;;;;;;;;;5114023;28;20336;-84
2021/12/22 07:56:51;;;;;;;;;;;;;;;;;;5114519;28;20028;-84
2021/12/22 07:59:18;;;;;;;;;;;;;;;;;;5114357;28;20010;-84
2021/12/22 08:01:45;;;;;;;;;;;;;;;;;;5114729;28;19967;-84
2021/12/22 08:04:12;;;;;;;;;;;;;;;;;;5113455;28;20014;-84
2021/12/22 08:06:39;;;;;;;;;;;;;;;;;;5114257;28;19942;-85
2021/12/22 08:09:06;;;;;;;;;;;;;;;;;;5113962;28;20007;-84
2021/12/22 08:11:33;;;;;;;;;;;;;;;;;;5113877;28;20007;-84
2021/12/22 08:14:00;;;;;;;;;;;;;;;;;;5113491;28;20032;-85
2021/12/22 08:16:27;;;;;;;;;;;;;;;;;;5114160;28;20040;-84
2021/12/22 08:18:54;;;;;;;;;;;;;;;;;;5113970;28;20015;-84
2021/12/22 08:21:21;;;;;;;;;;;;;;;;;;5094378;28;20008;-85
2021/12/22 08:23:48;;;;;;;;;;;;;;;;;;5094563;28;20011;-84
2021/12/22 08:26:15;;;;;;;;;;;;;;;;;;5113253;28;20014;-85
2021/12/22 08:28:46;;;;;;;;;;;;;;;;;;5113804;28;20003;-85
2021/12/22 08:31:13;;;;;;;;;;;;;;;;;;5114164;28;20278;-85
2021/12/22 08:33:45;;;;;;;;;;;;;;;;;;5111616;28;19960;-84
2021/12/22 08:38:58;;;;;;;;;;;;;;;;;;5113969;28;19965;-85
2021/12/22 08:41:25;;;;;;;;;;;;;;;;;;5113572;28;20011;-84
2021/12/22 08:43:52;;;;;;;;;;;;;;;;;;5113774;28;20449;-84
2021/12/22 08:46:19;;;;;;;;;;;;;;;;;;5113206;28;20023;-84
2021/12/22 08:48:46;;;;;;;;;;;;;;;;;;5113752;28;19973;-84
2021/12/22 08:51:13;;;;;;;;;;;;;;;;;;5113622;28;20044;-84
2021/12/22 08:53:41;;;;;;;;;;;;;;;;;;5113513;28;20018;-85
2021/12/22 08:56:08;;;;;;;;;;;;;;;;;;5113839;28;20029;-85
2021/12/22 08:58:35;;;;;;;;;;;;;;;;;;5113069;28;20019;-84
2021/12/22 09:01:02;;;;;;;;;;;;;;;;;;5113536;28;20011;-84
2021/12/22 09:03:29;;;;;;;;;;;;;;;;;;5112897;28;20345;-85
2021/12/22 09:05:56;;;;;;;;;;;;;;;;;;5113742;28;20041;-84
2021/12/22 09:08:23;;;;;;;;;;;;;;;;;;5113187;28;19972;-85
2021/12/22 09:10:50;;;;;;;;;;;;;;;;;;5113581;28;20044;-85
2021/12/22 09:13:17;;;;;;;;;;;;;;;;;;5112446;28;20049;-85
2021/12/22 09:15:44;;;;;;;;;;;;;;;;;;5113722;28;20343;-86
2021/12/22 09:18:11;;;;;;;;;;;;;;;;;;5113254;28;20011;-84
2021/12/22 09:20:38;;;;;;;;;;;;;;;;;;5113677;28;20018;-85
2021/12/22 09:23:05;;;;;;;;;;;;;;;;;;5113254;28;20011;-85
2021/12/22 09:25:33;;;;;;;;;;;;;;;;;;5117478;28;20006;-85
2021/12/22 09:28:00;;;;;;;;;;;;;;;;;;5117492;28;19995;-85
2021/12/22 09:30:27;;;;;;;;;;;;;;;;;;5117413;28;20446;-86
2021/12/22 09:32:54;;;;;;;;;;;;;;;;;;5117136;28;20326;-85
2021/12/22 09:35:22;;;;;;;;;;;;;;;;;;5117333;28;19986;-85
2021/12/22 09:37:49;;;;;;;;;;;;;;;;;;5116837;28;19944;-85
2021/12/22 09:40:16;;;;;;;;;;;;;;;;;;5117217;28;20037;-85
2021/12/22 09:42:43;;;;;;;;;;;;;;;;;;5117150;28;20144;-85
2021/12/22 09:45:10;;;;;;;;;;;;;;;;;;5117046;28;20041;-86
2021/12/22 09:47:51;;;;;;;;;;;;;;;;;;5116666;28;19924;-85
2021/12/22 09:50:34;;;;;;;;;;;;;;;;;;5116518;28;19934;-85
2021/12/22 09:53:02;;;;;;;;;;;;;;;;;;5117066;28;19923;-85
2021/12/22 09:55:29;;;;;;;;;;;;;;;;;;5117119;28;19944;-85
2021/12/22 09:57:56;;;;;;;;;;;;;;;;;;5116319;28;20317;-85
2021/12/22 10:00:24;;;;;;;;;;;;;;;;;;5116766;28;19948;-85
2021/12/22 10:02:51;;;;;;;;;;;;;;;;;;5116836;28;19938;-86
2021/12/22 10:05:18;;;;;;;;;;;;;;;;;;5117114;28;19982;-86
2021/12/22 10:07:45;;;;;;;;;;;;;;;;;;5117160;28;19923;-86
2021/12/22 10:10:15;;;;;;;;;;;;;;;;;;5117208;28;19924;-86
2021/12/22 10:12:44;;;;;;;;;;;;;;;;;;5116181;28;19958;-85
2021/12/22 10:15:12;;;;;;;;;;;;;;;;;;5116768;28;19930;-87
2021/12/22 10:17:39;;;;;;;;;;;;;;;;;;5116535;28;19928;-86
2021/12/22 10:20:08;;;;;;;;;;;;;;;;;;5116874;28;19928;-86
2021/12/22 10:22:35;;;;;;;;;;;;;;;;;;5116086;28;19977;-87
2021/12/22 10:25:03;;;;;;;;;;;;;;;;;;5116953;28;19928;-86
2021/12/22 10:27:30;;;;;;;;;;;;;;;;;;5116210;28;19959;-86
2021/12/22 10:29:57;;;;;;;;;;;;;;;;;;5115959;28;20035;-86
2021/12/22 10:32:24;;;;;;;;;;;;;;;;;;5115788;28;19978;-87
2021/12/22 10:34:51;;;;;;;;;;;;;;;;;;5115684;28;20011;-87
2021/12/22 10:37:19;;;;;;;;;;;;;;;;;;5115909;28;20438;-86
2021/12/22 10:39:46;;;;;;;;;;;;;;;;;;5115703;28;20421;-87
2021/12/22 10:42:15;;;;;;;;;;;;;;;;;;5116221;28;20002;-86
2021/12/22 10:44:42;;;;;;;;;;;;;;;;;;5115562;28;20287;-86
2021/12/22 10:47:09;;;;;;;;;;;;;;;;;;5115643;28;19973;-86
2021/12/22 10:49:36;;;;;;;;;;;;;;;;;;5116121;28;20408;-86
2021/12/22 10:52:03;;;;;;;;;;;;;;;;;;5115563;28;19978;-86
2021/12/22 10:54:30;;;;;;;;;;;;;;;;;;5115728;28;19946;-85
2021/12/22 10:56:57;;;;;;;;;;;;;;;;;;5115903;28;20385;-86
2021/12/22 10:59:24;;;;;;;;;;;;;;;;;;5115534;28;20010;-87
2021/12/22 11:01:54;;;;;;;;;;;;;;;;;;5114245;28;19930;-87
2021/12/22 11:04:23;;;;;;;;;;;;;;;;;;5093818;28;19924;-87
2021/12/22 11:06:52;;;;;;;;;;;;;;;;;;5113983;28;20497;-86
2021/12/22 11:09:19;;;;;;;;;;;;;;;;;;5113974;28;20021;-86
2021/12/22 11:11:46;;;;;;;;;;;;;;;;;;5113726;28;20040;-86
2021/12/22 11:14:13;;;;;;;;;;;;;;;;;;5113583;28;20049;-87
2021/12/22 11:16:40;;;;;;;;;;;;;;;;;;5113927;28;19984;-85
2021/12/22 11:19:07;;;;;;;;;;;;;;;;;;5113462;28;20011;-86
2021/12/22 11:21:35;;;;;;;;;;;;;;;;;;5113375;28;19924;-86
2021/12/22 11:24:02;;;;;;;;;;;;;;;;;;5113116;28;20005;-86
2021/12/22 11:26:29;;;;;;;;;;;;;;;;;;5112673;28;20021;-86
2021/12/22 11:28:57;;;;;;;;;;;;;;;;;;5113341;28;20523;-86
2021/12/22 11:31:24;;;;;;;;;;;;;;;;;;5112890;28;20369;-86
2021/12/22 11:33:51;;;;;;;;;;;;;;;;;;5114858;28;19957;-87
2021/12/22 11:36:18;;;;;;;;;;;;;;;;;;5114824;28;20032;-84
2021/12/22 11:38:45;;;;;;;;;;;;;;;;;;5114395;28;20015;-85
2021/12/22 11:41:15;;;;;;;;;;;;;;;;;;5114704;28;20339;-86
2021/12/22 11:43:42;;;;;;;;;;;;;;;;;;5115087;28;19951;-85
2021/12/22 11:46:09;;;;;;;;;;;;;;;;;;5115001;28;20365;-85
2021/12/22 11:48:36;;;;;;;;;;;;;;;;;;5114898;28;20037;-85
2021/12/22 11:51:03;;;;;;;;;;;;;;;;;;5114658;28;20362;-84
2021/12/22 11:53:30;;;;;;;;;;;;;;;;;;5114847;28;20043;-84
2021/12/22 11:55:57;;;;;;;;;;;;;;;;;;5114366;28;20017;-84
2021/12/22 11:58:24;;;;;;;;;;;;;;;;;;5114468;28;19950;-85
2021/12/22 12:00:51;;;;;;;;;;;;;;;;;;5114325;28;20017;-86
2021/12/22 12:03:18;;;;;;;;;;;;;;;;;;5113941;28;19992;-84
2021/12/22 12:05:45;;;;;;;;;;;;;;;;;;5113975;28;20011;-84
2021/12/22 12:08:13;;;;;;;;;;;;;;;;;;5113773;28;20437;-84
2021/12/22 12:10:41;;;;;;;;;;;;;;;;;;5113471;28;19931;-84
2021/12/22 12:13:14;;;;;;;;;;;;;;;;;;5113664;28;19959;-84
2021/12/22 12:15:50;;;;;;;;;;;;;;;;;;5113638;28;20033;-84
2021/12/22 12:23:57;;;;;;;;;;;;;;;;;;5100822;28;19938;-84
2021/12/22 12:26:24;;;;;;;;;;;;;;;;;;5114123;28;20007;-83
2021/12/22 12:28:51;;;;;;;;;;;;;;;;;;5113657;28;20378;-83
2021/12/22 12:31:18;;;;;;;;;;;;;;;;;;5113519;28;19924;-84
2021/12/22 12:33:46;;;;;;;;;;;;;;;;;;5113386;28;20023;-84
2021/12/22 12:36:13;;;;;;;;;;;;;;;;;;5113416;28;19928;-84
2021/12/22 12:38:40;;;;;;;;;;;;;;;;;;5114004;28;20023;-83
2021/12/22 12:41:11;;;;;;;;;;;;;;;;;;5113576;28;20037;-84
2021/12/22 12:43:38;;;;;;;;;;;;;;;;;;5113826;28;20022;-83
2021/12/22 12:46:05;;;;;;;;;;;;;;;;;;5114025;28;19959;-83
2021/12/22 12:48:32;;;;;;;;;;;;;;;;;;5113968;28;20026;-84
2021/12/22 12:50:59;;;;;;;;;;;;;;;;;;5112245;28;20026;-83
2021/12/22 12:53:26;;;;;;;;;;;;;;;;;;5113330;28;20015;-84
2021/12/22 12:55:53;;;;;;;;;;;;;;;;;;5113796;28;19969;-84
2021/12/22 12:58:20;;;;;;;;;;;;;;;;;;5113962;28;19970;-83
2021/12/22 13:00:47;;;;;;;;;;;;;;;;;;5117846;28;20010;-84
2021/12/22 13:03:14;;;;;;;;;;;;;;;;;;5117653;28;20014;-84
2021/12/22 13:05:41;;;;;;;;;;;;;;;;;;5117224;28;20372;-83
2021/12/22 13:08:10;;;;;;;;;;;;;;;;;;5117257;28;19967;-83
2021/12/22 13:10:39;;;;;;;;;;;;;;;;;;5117217;28;19942;-83
2021/12/22 13:13:18;;;;;;;;;;;;;;;;;;5115681;28;19978;-83
2021/12/22 13:15:47;;;;;;;;;;;;;;;;;;5117855;28;19994;-83
2021/12/22 13:18:14;;;;;;;;;;;;;;;;;;5116756;28;20278;-83
2021/12/22 13:20:41;;;;;;;;;;;;;;;;;;5116143;28;20021;-83
2021/12/22 13:23:08;;;;;;;;;;;;;;;;;;5116850;28;20031;-83
2021/12/22 13:25:35;;;;;;;;;;;;;;;;;;5117013;28;20447;-84
2021/12/22 13:28:02;;;;;;;;;;;;;;;;;;5117228;28;20020;-83
2021/12/22 13:30:29;;;;;;;;;;;;;;;;;;5116966;28;19924;-84
2021/12/22 13:32:56;;;;;;;;;;;;;;;;;;5117166;28;20003;-84
2021/12/22 13:35:24;;;;;;;;;;;;;;;;;;5117002;28;20021;-83
2021/12/22 13:37:53;;;;;;;;;;;;;;;;;;5116709;28;20029;-83
2021/12/22 13:40:20;;;;;;;;;;;;;;;;;;5107994;28;20275;-83
2021/12/22 13:42:47;;;;;;;;;;;;;;;;;;5115924;28;19923;-83
2021/12/22 13:45:14;;;;;;;;;;;;;;;;;;5116837;28;20116;-84
2021/12/22 13:47:41;;;;;;;;;;;;;;;;;;5114756;28;20892;-84
2021/12/22 13:50:08;;;;;;;;;;;;;;;;;;5116430;28;20030;-84
2021/12/22 13:52:35;;;;;;;;;;;;;;;;;;5114809;28;20121;-84
2021/12/22 13:55:02;;;;;;;;;;;;;;;;;;5116650;28;19958;-84
2021/12/22 13:57:29;;;;;;;;;;;;;;;;;;5116444;28;20024;-84
2021/12/22 13:59:56;;;;;;;;;;;;;;;;;;5116644;28;20023;-85
2021/12/22 14:02:23;;;;;;;;;;;;;;;;;;5119492;28;20034;-85
2021/12/22 14:04:50;;;;;;;;;;;;;;;;;;5118992;28;19984;-84
2021/12/22 14:07:21;;;;;;;;;;;;;;;;;;5120113;28;19974;-85
2021/12/22 14:09:48;;;;;;;;;;;;;;;;;;5116560;28;19942;-84
2021/12/22 14:12:15;;;;;;;;;;;;;;;;;;5115847;28;20364;-84
2021/12/22 14:14:42;;;;;;;;;;;;;;;;;;5116048;28;20048;-84
2021/12/22 14:17:10;;;;;;;;;;;;;;;;;;5115979;28;19994;-85
2021/12/22 14:19:37;;;;;;;;;;;;;;;;;;5115868;28;19942;-85
2021/12/22 14:22:04;;;;;;;;;;;;;;;;;;5116101;28;20332;-86
2021/12/22 14:24:31;;;;;;;;;;;;;;;;;;5116246;28;19967;-85
2021/12/22 14:26:59;;;;;;;;;;;;;;;;;;5116336;28;19928;-86
2021/12/22 14:29:26;;;;;;;;;;;;;;;;;;5115712;28;19953;-84
2021/12/22 14:31:53;;;;;;;;;;;;;;;;;;5115458;28;19945;-85
2021/12/22 14:34:20;;;;;;;;;;;;;;;;;;5115688;28;20003;-84
2021/12/22 14:36:47;;;;;;;;;;;;;;;;;;5116095;28;20020;-84
2021/12/22 14:39:14;;;;;;;;;;;;;;;;;;5115603;28;20037;-84
2021/12/22 14:41:42;;;;;;;;;;;;;;;;;;5116163;28;20033;-84
2021/12/22 14:44:09;;;;;;;;;;;;;;;;;;5115290;28;20450;-85
2021/12/22 14:46:37;;;;;;;;;;;;;;;;;;5115952;28;19955;-85
2021/12/22 14:49:04;;;;;;;;;;;;;;;;;;5115813;28;19939;-85
2021/12/22 14:51:31;;;;;;;;;;;;;;;;;;5115959;28;19987;-85
2021/12/22 14:53:58;;;;;;;;;;;;;;;;;;5115438;28;19976;-85
2021/12/22 14:56:25;;;;;;;;;;;;;;;;;;5115241;28;20042;-85
2021/12/22 14:58:52;;;;;;;;;;;;;;;;;;5115649;28;20002;-85
2021/12/22 15:01:20;;;;;;;;;;;;;;;;;;5114417;28;19938;-85
2021/12/22 15:03:47;;;;;;;;;;;;;;;;;;5115452;28;20420;-84
2021/12/22 15:06:14;;;;;;;;;;;;;;;;;;5115319;28;20028;-85
2021/12/22 15:08:41;;;;;;;;;;;;;;;;;;5115660;28;20030;-85
2021/12/22 15:11:08;;;;;;;;;;;;;;;;;;5115884;28;19988;-87
2021/12/22 15:13:36;;;;;;;;;;;;;;;;;;5117842;28;20001;-87
2021/12/22 15:16:03;;;;;;;;;;;;;;;;;;5118281;28;19938;-87
2021/12/22 15:18:30;;;;;;;;;;;;;;;;;;5116853;28;20029;-86
2021/12/22 15:20:57;;;;;;;;;;;;;;;;;;5114176;28;20473;-85
2021/12/22 15:23:24;;;;;;;;;;;;;;;;;;5114948;28;20033;-85
2021/12/22 15:25:51;;;;;;;;;;;;;;;;;;5114427;28;20374;-88
2021/12/22 15:28:18;;;;;;;;;;;;;;;;;;5115121;28;19986;-85
2021/12/22 15:30:48;;;;;;;;;;;;;;;;;;5114896;28;20021;-88
2021/12/22 15:33:15;;;;;;;;;;;;;;;;;;5114608;28;19970;-86
2021/12/22 15:35:42;;;;;;;;;;;;;;;;;;5115071;28;20018;-86
2021/12/22 15:38:09;;;;;;;;;;;;;;;;;;5114710;28;20022;-86
2021/12/22 15:40:36;;;;;;;;;;;;;;;;;;5114455;28;20447;-86
2021/12/22 15:43:03;;;;;;;;;;;;;;;;;;5114770;28;19938;-87
2021/12/22 15:45:30;;;;;;;;;;;;;;;;;;5114789;28;19970;-88
2021/12/22 15:47:57;;;;;;;;;;;;;;;;;;5114547;28;20434;-87
2021/12/22 15:50:24;;;;;;;;;;;;;;;;;;5114602;28;19996;-87
2021/12/22 15:52:51;;;;;;;;;;;;;;;;;;5114249;28;20022;-86
2021/12/22 15:55:18;;;;;;;;;;;;;;;;;;5114970;28;20023;-86
2021/12/22 15:57:45;;;;;;;;;;;;;;;;;;5114395;28;20020;-86
2021/12/22 16:00:12;;;;;;;;;;;;;;;;;;5114951;28;20049;-86
2021/12/22 16:02:39;;;;;;;;;;;;;;;;;;5114427;28;20291;-88
2021/12/22 16:05:06;;;;;;;;;;;;;;;;;;5114310;28;20028;-86
2021/12/22 16:07:37;;;;;;;;;;;;;;;;;;5114451;28;20008;-87
2021/12/22 16:10:04;;;;;;;;;;;;;;;;;;5114797;28;19924;-88
2021/12/22 16:12:31;;;;;;;;;;;;;;;;;;5114008;28;20027;-86
2021/12/22 16:14:59;;;;;;;;;;;;;;;;;;5114264;28;19930;-86
2021/12/22 16:17:26;;;;;;;;;;;;;;;;;;5113805;28;19930;-86
2021/12/22 16:19:53;;;;;;;;;;;;;;;;;;5114699;28;19989;-88
2021/12/22 16:22:20;;;;;;;;;;;;;;;;;;5114302;28;20029;-88
2021/12/22 16:24:47;;;;;;;;;;;;;;;;;;5113626;28;19946;-86
2021/12/22 16:27:14;;;;;;;;;;;;;;;;;;5114257;28;20015;-89
2021/12/22 16:29:41;;;;;;;;;;;;;;;;;;5113826;28;20482;-87
2021/12/22 16:32:08;;;;;;;;;;;;;;;;;;5114438;28;20014;-87
2021/12/22 16:34:35;;;;;;;;;;;;;;;;;;5113072;28;20045;-88
2021/12/22 16:37:02;;;;;;;;;;;;;;;;;;5113813;28;20014;-87
2021/12/22 16:39:29;;;;;;;;;;;;;;;;;;5113901;28;20006;-86
2021/12/22 16:41:56;;;;;;;;;;;;;;;;;;5114113;28;20036;-87
2021/12/22 16:44:25;;;;;;;;;;;;;;;;;;5113344;28;20028;-87
2021/12/22 16:46:52;;;;;;;;;;;;;;;;;;5114094;28;20371;-88
2021/12/22 16:49:19;;;;;;;;;;;;;;;;;;5114292;28;20048;-87
2021/12/22 16:51:46;;;;;;;;;;;;;;;;;;5114280;28;19982;-87
2021/12/22 16:54:13;;;;;;;;;;;;;;;;;;5114050;28;19958;-87
2021/12/22 16:56:40;;;;;;;;;;;;;;;;;;5114376;28;20018;-87
2021/12/22 16:59:07;;;;;;;;;;;;;;;;;;5116456;28;20372;-87
2021/12/22 17:01:34;;;;;;;;;;;;;;;;;;5114254;28;20025;-87